Time;durP1;ratioP1;P1;durP2;ratioP2;P2;SDS_P1;SDS_P2;PMS_P1;PMS_P2;Temp;Humidity;BMP_temperature;BMP_pressure;BME280_temperature;BME280_humidity;BME280_pressure;Samples;Min_cycle;Max_cycle;Signal;HPM_P1;HPM_P2
2021/01/09 00:00:13;;;;;;;15.13;12.53;;;2.10;99.90;;;;;;5075122;28;20298;-41
2021/01/09 00:02:41;;;;;;;15.63;11.77;;;2.10;99.90;;;;;;5076374;28;20635;-44
2021/01/09 00:05:10;;;;;;;12.40;10.73;;;2.10;99.90;;;;;;5076629;28;20645;-43
2021/01/09 00:07:37;;;;;;;15.53;12.50;;;2.20;99.90;;;;;;5075142;28;20350;-44
2021/01/09 00:10:07;;;;;;;16.83;13.03;;;2.20;99.90;;;;;;5074603;28;20247;-45
2021/01/09 00:12:36;;;;;;;15.95;12.85;;;2.20;99.90;;;;;;5073438;28;20294;-42
2021/01/09 00:15:04;;;;;;;15.23;12.57;;;2.20;99.90;;;;;;5073978;28;20265;-44
2021/01/09 00:17:31;;;;;;;14.37;12.40;;;2.20;99.90;;;;;;5073266;28;20211;-42
2021/01/09 00:19:58;;;;;;;19.67;13.97;;;2.20;99.90;;;;;;5073313;28;20257;-44
2021/01/09 00:22:25;;;;;;;15.27;12.00;;;2.20;99.90;;;;;;5073143;28;20310;-42
2021/01/09 00:24:52;;;;;;;15.80;12.93;;;2.10;99.90;;;;;;5073216;28;20272;-42
2021/01/09 00:27:20;;;;;;;16.90;13.47;;;2.10;99.90;;;;;;5073148;28;20302;-43
2021/01/09 00:29:47;;;;;;;15.60;12.75;;;2.10;99.90;;;;;;5072952;28;20294;-43
2021/01/09 00:32:14;;;;;;;18.23;13.85;;;2.10;99.90;;;;;;5073361;28;20203;-43
2021/01/09 00:34:42;;;;;;;16.70;12.53;;;2.20;99.90;;;;;;5072934;28;20265;-41
2021/01/09 00:37:09;;;;;;;18.67;13.60;;;2.20;99.90;;;;;;5072945;28;20329;-41
2021/01/09 00:39:36;;;;;;;17.15;12.40;;;2.20;99.90;;;;;;5073095;28;20272;-43
2021/01/09 00:42:03;;;;;;;16.53;13.57;;;2.20;99.90;;;;;;5073201;28;20253;-45
2021/01/09 00:44:31;;;;;;;14.82;12.35;;;2.20;99.90;;;;;;5072995;28;20714;-43
2021/01/09 00:46:59;;;;;;;16.07;12.53;;;2.20;99.90;;;;;;5073086;28;20494;-43
2021/01/09 00:49:26;;;;;;;16.38;13.35;;;2.20;99.90;;;;;;5072909;28;20306;-41
2021/01/09 00:51:54;;;;;;;17.07;12.57;;;2.20;99.90;;;;;;5072747;28;20234;-43
2021/01/09 00:54:21;;;;;;;16.38;12.68;;;2.20;99.90;;;;;;5072987;28;20280;-44
2021/01/09 00:56:52;;;;;;;20.57;14.47;;;2.30;99.90;;;;;;5072785;28;20217;-43
2021/01/09 00:59:19;;;;;;;18.37;13.50;;;2.30;99.90;;;;;;5072863;28;20253;-43
2021/01/09 01:01:49;;;;;;;17.73;14.17;;;2.30;99.90;;;;;;5072713;28;20324;-44
2021/01/09 01:04:17;;;;;;;15.60;12.48;;;2.30;99.90;;;;;;5072676;28;20235;-43
2021/01/09 01:06:44;;;;;;;16.03;13.53;;;2.30;99.90;;;;;;5072860;28;20310;-42
2021/01/09 01:09:11;;;;;;;14.47;11.37;;;2.30;99.90;;;;;;5072897;28;20287;-44
2021/01/09 01:11:41;;;;;;;14.77;11.80;;;2.30;99.90;;;;;;5049711;28;666172;-40
2021/01/09 01:14:08;;;;;;;15.45;12.02;;;2.30;99.90;;;;;;5073501;28;20290;-43
2021/01/09 01:16:35;;;;;;;22.33;13.65;;;2.30;99.90;;;;;;5073253;28;20215;-41
2021/01/09 01:19:04;;;;;;;20.88;14.45;;;2.20;99.90;;;;;;5073187;28;20249;-41
2021/01/09 01:21:34;;;;;;;18.23;14.23;;;2.20;99.90;;;;;;5073921;28;20290;-44
2021/01/09 01:24:02;;;;;;;18.92;13.50;;;2.20;99.90;;;;;;5073341;28;20214;-41
2021/01/09 01:26:29;;;;;;;15.60;11.77;;;2.10;99.90;;;;;;5073436;28;20310;-41
2021/01/09 01:28:57;;;;;;;14.70;11.50;;;2.10;99.90;;;;;;5073289;28;20326;-41
2021/01/09 01:31:24;;;;;;;26.50;15.90;;;2.10;99.90;;;;;;5073048;28;20302;-41
2021/01/09 01:33:51;;;;;;;18.40;14.23;;;2.10;99.90;;;;;;5073041;28;20670;-41
2021/01/09 01:36:20;;;;;;;22.85;16.65;;;2.00;99.90;;;;;;5073055;28;20195;-41
2021/01/09 01:38:47;;;;;;;22.38;14.55;;;2.00;99.90;;;;;;5072849;28;20637;-41
2021/01/09 01:41:14;;;;;;;25.93;16.53;;;2.00;99.90;;;;;;5072080;28;20204;-41
2021/01/09 01:43:41;;;;;;;21.50;15.53;;;2.00;99.90;;;;;;5072806;28;20262;-41
2021/01/09 01:46:09;;;;;;;17.77;13.88;;;2.00;99.90;;;;;;5072921;28;20212;-41
2021/01/09 01:48:37;;;;;;;17.45;13.60;;;2.00;99.90;;;;;;5072634;28;20207;-41
2021/01/09 01:51:05;;;;;;;18.98;14.10;;;2.00;99.90;;;;;;5072954;28;20210;-42
2021/01/09 01:53:34;;;;;;;21.73;14.90;;;2.00;99.90;;;;;;5072464;28;20294;-42
2021/01/09 01:56:02;;;;;;;24.37;17.17;;;2.00;99.90;;;;;;5072509;28;20219;-41
2021/01/09 01:58:29;;;;;;;22.37;14.83;;;2.00;99.90;;;;;;5072498;28;20211;-41
2021/01/09 02:00:56;;;;;;;19.60;15.37;;;2.00;99.90;;;;;;5072575;28;20294;-41
2021/01/09 02:03:23;;;;;;;17.77;14.50;;;1.90;99.90;;;;;;5072389;28;20226;-41
2021/01/09 02:06:02;;;;;;;20.97;15.43;;;1.90;99.90;;;;;;5072385;28;20389;-41
2021/01/09 02:08:34;;;;;;;18.80;14.47;;;1.90;99.90;;;;;;5072384;28;20240;-41
2021/01/09 02:11:08;;;;;;;21.17;15.27;;;1.90;99.90;;;;;;5072160;28;20242;-41
2021/01/09 02:13:43;;;;;;;20.30;15.37;;;1.90;99.90;;;;;;5072406;28;20306;-40
2021/01/09 02:16:11;;;;;;;21.33;15.25;;;1.90;99.90;;;;;;5072237;28;20217;-43
2021/01/09 02:18:41;;;;;;;21.98;14.73;;;1.90;99.90;;;;;;5072278;28;20231;-40
2021/01/09 02:21:21;;;;;;;22.00;15.63;;;1.90;99.90;;;;;;5072240;28;20638;-41
2021/01/09 02:23:48;;;;;;;27.30;18.27;;;1.90;99.90;;;;;;5072035;28;20778;-41
2021/01/09 02:26:17;;;;;;;25.33;17.93;;;1.90;99.90;;;;;;5072241;28;20208;-41
2021/01/09 02:28:44;;;;;;;24.45;17.98;;;1.90;99.90;;;;;;5071999;28;20203;-42
2021/01/09 02:31:11;;;;;;;25.67;16.92;;;1.90;99.90;;;;;;5071977;28;20219;-42
2021/01/09 02:33:40;;;;;;;19.05;14.88;;;1.90;99.90;;;;;;5072586;28;20548;-41
2021/01/09 02:36:08;;;;;;;18.25;14.88;;;2.00;99.90;;;;;;5071836;28;20246;-41
2021/01/09 02:38:36;;;;;;;21.55;15.55;;;1.90;99.90;;;;;;5071849;28;20570;-41
2021/01/09 02:41:04;;;;;;;20.40;15.27;;;1.90;99.90;;;;;;5071949;28;20662;-40
2021/01/09 02:43:31;;;;;;;18.27;14.38;;;1.90;99.90;;;;;;5071095;28;20231;-42
2021/01/09 02:45:59;;;;;;;20.95;15.68;;;1.90;99.90;;;;;;5071789;28;20302;-41
2021/01/09 02:48:26;;;;;;;21.23;15.45;;;1.90;99.90;;;;;;5071714;28;20212;-42
2021/01/09 02:50:53;;;;;;;22.50;16.97;;;2.00;99.90;;;;;;5071492;28;20211;-40
2021/01/09 02:53:20;;;;;;;23.83;17.63;;;2.00;99.90;;;;;;5071686;28;20413;-40
2021/01/09 02:55:47;;;;;;;21.48;16.23;;;2.00;99.90;;;;;;5071639;28;20292;-41
2021/01/09 02:58:15;;;;;;;25.47;17.60;;;2.00;99.90;;;;;;5071655;28;20243;-40
2021/01/09 03:00:42;;;;;;;19.87;15.37;;;2.00;99.90;;;;;;5071719;28;20679;-40
2021/01/09 03:03:09;;;;;;;22.52;16.95;;;2.00;99.90;;;;;;5071444;28;20745;-40
2021/01/09 03:05:36;;;;;;;23.88;16.88;;;1.90;99.90;;;;;;5071761;28;20647;-41
2021/01/09 03:08:03;;;;;;;20.03;16.97;;;1.90;99.90;;;;;;5071609;28;20237;-40
2021/01/09 03:10:30;;;;;;;19.23;15.13;;;1.90;99.90;;;;;;5070919;28;20320;-41
2021/01/09 03:12:57;;;;;;;20.40;15.45;;;1.90;99.90;;;;;;5071634;28;20231;-41
2021/01/09 03:15:25;;;;;;;21.67;15.77;;;1.90;99.90;;;;;;5071425;28;20290;-42
2021/01/09 03:17:53;;;;;;;23.13;16.90;;;1.90;99.90;;;;;;5071443;28;20204;-40
2021/01/09 03:20:20;;;;;;;27.30;19.85;;;1.90;99.90;;;;;;5071656;28;20214;-41
2021/01/09 03:22:47;;;;;;;19.67;15.90;;;1.90;99.90;;;;;;5071548;28;20589;-41
2021/01/09 03:25:14;;;;;;;23.57;16.63;;;1.90;99.90;;;;;;5071260;28;20289;-41
2021/01/09 03:27:41;;;;;;;22.20;16.37;;;1.90;99.90;;;;;;5071542;28;20243;-41
2021/01/09 03:30:09;;;;;;;26.53;16.80;;;1.90;99.90;;;;;;5071302;28;20218;-41
2021/01/09 03:32:37;;;;;;;23.15;17.88;;;1.80;99.90;;;;;;5071302;28;20250;-41
2021/01/09 03:35:05;;;;;;;20.27;15.97;;;1.80;99.90;;;;;;5071441;28;20317;-41
2021/01/09 03:37:32;;;;;;;30.80;20.70;;;1.80;99.90;;;;;;5071490;28;20614;-41
2021/01/09 03:39:59;;;;;;;22.80;16.63;;;1.70;99.90;;;;;;5071290;28;20280;-42
2021/01/09 03:42:27;;;;;;;20.35;16.90;;;1.70;99.90;;;;;;5071163;28;20245;-41
2021/01/09 03:44:53;;;;;;;20.13;14.98;;;1.80;99.90;;;;;;5071129;28;20586;-40
2021/01/09 03:47:20;;;;;;;24.15;17.48;;;1.80;99.90;;;;;;5071396;28;20579;-41
2021/01/09 03:49:49;;;;;;;22.90;17.45;;;1.70;99.90;;;;;;5071181;28;20649;-42
2021/01/09 03:52:16;;;;;;;22.60;16.58;;;1.70;99.90;;;;;;5071225;28;20206;-41
2021/01/09 03:54:43;;;;;;;22.20;16.38;;;1.70;99.90;;;;;;5070888;28;20298;-41
2021/01/09 03:57:10;;;;;;;28.55;18.35;;;1.70;99.90;;;;;;5071104;28;20574;-41
2021/01/09 03:59:37;;;;;;;21.33;16.02;;;1.70;99.90;;;;;;5070922;28;20654;-42
2021/01/09 04:02:04;;;;;;;25.40;17.10;;;1.70;99.90;;;;;;5070789;28;20299;-41
2021/01/09 04:04:31;;;;;;;21.70;16.30;;;1.70;99.90;;;;;;5072389;28;20215;-41
2021/01/09 04:07:00;;;;;;;20.43;16.77;;;1.70;99.90;;;;;;5074847;28;20218;-41
2021/01/09 04:09:28;;;;;;;23.02;16.90;;;1.70;99.90;;;;;;5074599;28;20294;-42
2021/01/09 04:11:55;;;;;;;20.88;16.20;;;1.70;99.90;;;;;;5074371;28;20279;-41
2021/01/09 04:14:21;;;;;;;22.57;15.90;;;1.70;99.90;;;;;;5074782;28;20246;-44
2021/01/09 04:16:48;;;;;;;22.13;17.20;;;1.60;99.90;;;;;;5074533;28;20200;-41
2021/01/09 04:19:16;;;;;;;18.60;14.93;;;1.60;99.90;;;;;;5074639;28;20203;-42
2021/01/09 04:21:44;;;;;;;23.77;17.45;;;1.60;99.90;;;;;;5074450;28;20242;-43
2021/01/09 04:24:12;;;;;;;21.00;16.40;;;1.70;99.90;;;;;;5074221;28;20227;-42
2021/01/09 04:26:39;;;;;;;23.60;17.08;;;1.70;99.90;;;;;;5074623;28;20352;-41
2021/01/09 04:29:07;;;;;;;22.35;16.85;;;1.70;99.90;;;;;;5074398;28;20207;-43
2021/01/09 04:31:33;;;;;;;18.63;15.20;;;1.70;99.90;;;;;;5074321;28;20281;-41
2021/01/09 04:34:01;;;;;;;20.77;15.93;;;1.80;99.90;;;;;;5074312;28;20206;-42
2021/01/09 04:36:28;;;;;;;22.30;16.98;;;1.80;99.90;;;;;;5073990;28;20253;-41
2021/01/09 04:38:55;;;;;;;22.45;16.95;;;1.80;99.90;;;;;;5074112;28;20207;-42
2021/01/09 04:41:24;;;;;;;21.90;17.00;;;1.80;99.90;;;;;;5074365;28;20250;-40
2021/01/09 04:43:51;;;;;;;19.83;16.77;;;1.80;99.90;;;;;;5073861;28;20713;-42
2021/01/09 04:46:21;;;;;;;20.80;17.53;;;1.80;99.90;;;;;;5073945;28;20291;-41
2021/01/09 04:48:48;;;;;;;19.93;16.07;;;1.80;99.90;;;;;;5074003;28;20281;-41
2021/01/09 04:51:16;;;;;;;24.30;17.97;;;1.80;99.90;;;;;;5073745;28;20284;-41
2021/01/09 04:53:44;;;;;;;22.63;16.33;;;1.80;99.90;;;;;;5074111;28;20660;-41
2021/01/09 04:56:12;;;;;;;22.13;17.03;;;1.80;99.90;;;;;;5074000;28;20207;-43
2021/01/09 04:58:40;;;;;;;19.90;16.42;;;1.80;99.90;;;;;;5073707;28;20281;-41
2021/01/09 05:01:07;;;;;;;21.38;16.50;;;1.90;99.90;;;;;;5073811;28;20222;-42
2021/01/09 05:03:34;;;;;;;21.87;16.37;;;1.90;99.90;;;;;;5073669;28;20263;-41
2021/01/09 05:06:01;;;;;;;19.90;16.23;;;1.90;99.90;;;;;;5073385;28;20299;-40
2021/01/09 05:08:28;;;;;;;20.80;15.63;;;1.90;99.90;;;;;;5073723;28;20294;-41
2021/01/09 05:10:55;;;;;;;22.63;17.00;;;1.90;99.90;;;;;;5073352;28;20325;-40
2021/01/09 05:13:23;;;;;;;20.80;16.73;;;2.00;99.90;;;;;;5073401;28;20680;-41
2021/01/09 05:15:55;;;;;;;20.48;15.65;;;2.00;99.90;;;;;;5072470;28;20670;-41
2021/01/09 05:18:22;;;;;;;20.52;16.63;;;2.10;99.90;;;;;;5073271;28;20558;-41
2021/01/09 05:20:49;;;;;;;22.15;17.50;;;2.10;99.90;;;;;;5073433;28;20207;-43
2021/01/09 05:23:17;;;;;;;20.70;15.33;;;2.20;99.90;;;;;;5073245;28;20322;-44
2021/01/09 05:25:46;;;;;;;24.53;17.27;;;2.20;99.90;;;;;;5073299;28;20306;-41
2021/01/09 05:28:15;;;;;;;20.10;17.25;;;2.20;99.90;;;;;;5073217;28;20384;-41
2021/01/09 05:30:43;;;;;;;18.70;15.87;;;2.30;99.90;;;;;;5073515;28;20226;-43
2021/01/09 05:33:11;;;;;;;21.95;17.65;;;2.30;99.90;;;;;;5073325;28;20203;-41
2021/01/09 05:35:38;;;;;;;30.30;23.23;;;2.30;99.90;;;;;;5072958;28;20235;-41
2021/01/09 05:38:05;;;;;;;21.03;17.13;;;2.30;99.90;;;;;;5073110;28;20294;-41
2021/01/09 05:40:41;;;;;;;21.60;16.40;;;2.40;99.90;;;;;;5073021;28;20207;-42
2021/01/09 05:43:09;;;;;;;19.43;16.33;;;2.40;99.90;;;;;;5072865;28;20764;-42
2021/01/09 05:45:38;;;;;;;21.00;16.37;;;2.50;99.90;;;;;;5072708;28;20203;-42
2021/01/09 05:48:07;;;;;;;23.77;17.10;;;2.50;99.90;;;;;;5072810;28;20230;-41
2021/01/09 05:50:41;;;;;;;19.20;16.53;;;2.50;99.90;;;;;;5072579;28;20666;-41
2021/01/09 05:53:08;;;;;;;21.63;17.10;;;2.40;99.90;;;;;;5072916;28;20203;-42
2021/01/09 05:55:40;;;;;;;20.95;16.27;;;2.40;99.90;;;;;;5072530;28;20258;-42
2021/01/09 05:58:08;;;;;;;21.17;17.43;;;2.40;99.90;;;;;;5072507;28;20286;-41
2021/01/09 06:00:38;;;;;;;20.42;17.00;;;2.50;99.90;;;;;;5072576;28;20274;-43
2021/01/09 06:03:19;;;;;;;23.40;16.83;;;2.50;99.90;;;;;;5072336;28;20270;-41
2021/01/09 06:05:49;;;;;;;23.08;17.35;;;2.50;99.90;;;;;;5072506;28;20268;-42
2021/01/09 06:08:26;;;;;;;19.30;16.03;;;2.50;99.90;;;;;;5072343;28;20255;-42
2021/01/09 06:10:58;;;;;;;19.77;16.07;;;2.50;99.90;;;;;;5072271;28;20322;-42
2021/01/09 06:13:31;;;;;;;21.17;16.07;;;2.50;99.90;;;;;;5072341;28;20211;-42
2021/01/09 06:16:04;;;;;;;21.67;17.57;;;2.50;99.90;;;;;;5072213;28;20207;-42
2021/01/09 06:18:32;;;;;;;28.63;20.43;;;2.40;99.90;;;;;;5072276;28;20293;-43
2021/01/09 06:21:03;;;;;;;65.93;42.40;;;2.40;99.90;;;;;;5072115;28;20203;-43
2021/01/09 06:23:31;;;;;;;37.50;29.20;;;2.40;99.90;;;;;;5072051;28;20654;-42
2021/01/09 06:26:02;;;;;;;33.17;28.40;;;2.30;99.90;;;;;;5071943;28;20661;-42
2021/01/09 06:28:37;;;;;;;21.27;18.00;;;2.30;99.90;;;;;;5071727;28;20211;-42
2021/01/09 06:31:08;;;;;;;20.25;18.13;;;2.30;99.90;;;;;;5071822;28;20207;-41
2021/01/09 06:33:39;;;;;;;21.93;18.20;;;2.20;99.90;;;;;;5071956;28;20204;-41
2021/01/09 06:36:11;;;;;;;40.53;36.40;;;2.30;99.90;;;;;;5071998;28;20211;-45
2021/01/09 06:38:40;;;;;;;19.17;17.00;;;2.30;99.90;;;;;;5071912;28;20679;-41
2021/01/09 06:41:10;;;;;;;25.00;19.23;;;2.20;99.90;;;;;;5071910;28;20286;-41
2021/01/09 06:43:40;;;;;;;22.38;19.23;;;2.40;99.90;;;;;;5071746;28;20263;-41
2021/01/09 06:46:08;;;;;;;21.30;16.83;;;2.40;99.90;;;;;;5071795;28;20218;-41
2021/01/09 06:48:36;;;;;;;20.02;16.63;;;2.40;99.90;;;;;;5072107;28;20210;-41
2021/01/09 06:51:24;;;;;;;21.08;16.38;;;2.40;99.90;;;;;;5071785;28;20745;-42
2021/01/09 06:54:32;;;;;;;20.67;16.77;;;2.50;99.90;;;;;;5071743;28;20253;-43
2021/01/09 06:57:12;;;;;;;23.37;18.73;;;2.60;99.90;;;;;;5072010;28;20689;-40
2021/01/09 06:59:40;;;;;;;24.67;18.48;;;2.60;99.90;;;;;;5071687;28;20211;-41
2021/01/09 07:02:18;;;;;;;21.85;16.90;;;2.60;99.90;;;;;;5071824;28;20211;-40
2021/01/09 07:04:52;;;;;;;20.73;16.67;;;2.40;99.90;;;;;;5071561;28;20223;-42
2021/01/09 07:07:29;;;;;;;23.17;17.67;;;2.40;99.90;;;;;;5071572;28;20630;-40
2021/01/09 07:10:19;;;;;;;22.73;18.80;;;2.30;99.90;;;;;;5071806;28;20213;-40
2021/01/09 07:12:56;;;;;;;35.63;31.53;;;2.20;99.90;;;;;;5068946;28;20203;-42
2021/01/09 07:15:25;;;;;;;60.47;46.67;;;2.10;99.90;;;;;;5071602;28;20214;-42
2021/01/09 07:17:54;;;;;;;36.77;27.17;;;2.10;99.90;;;;;;5071456;28;20207;-41
2021/01/09 07:20:23;;;;;;;24.00;19.97;;;2.10;99.90;;;;;;5071176;28;20212;-40
2021/01/09 07:22:59;;;;;;;22.17;17.93;;;2.10;99.90;;;;;;5071451;28;20223;-41
2021/01/09 07:25:35;;;;;;;22.92;18.52;;;2.10;99.90;;;;;;5071340;28;20679;-39
2021/01/09 07:28:05;;;;;;;24.67;18.00;;;2.20;99.90;;;;;;5071661;28;20213;-39
2021/01/09 07:30:32;;;;;;;23.30;18.33;;;2.20;99.90;;;;;;5071235;28;20233;-39
2021/01/09 07:33:00;;;;;;;20.95;17.67;;;2.30;99.90;;;;;;5071497;28;20207;-38
2021/01/09 07:35:29;;;;;;;21.73;17.80;;;2.40;99.90;;;;;;5071367;28;20210;-39
2021/01/09 07:37:58;;;;;;;25.87;17.77;;;2.50;99.90;;;;;;5071263;28;20211;-39
2021/01/09 07:40:28;;;;;;;21.37;18.27;;;2.70;99.90;;;;;;5074252;28;20301;-39
2021/01/09 07:42:55;;;;;;;22.67;18.40;;;2.80;99.90;;;;;;5074972;28;20258;-39
2021/01/09 07:45:29;;;;;;;25.42;21.05;;;2.80;99.90;;;;;;5075104;28;20673;-39
2021/01/09 07:47:57;;;;;;;23.77;19.52;;;2.80;99.90;;;;;;5075208;28;20735;-39
2021/01/09 07:50:24;;;;;;;25.80;19.58;;;2.80;99.90;;;;;;5075118;28;20215;-40
2021/01/09 07:53:05;;;;;;;26.17;19.47;;;2.80;99.90;;;;;;5075283;28;20286;-39
2021/01/09 07:55:45;;;;;;;22.75;18.98;;;2.80;99.90;;;;;;5075255;28;20261;-39
2021/01/09 07:58:13;;;;;;;25.37;18.93;;;2.90;99.90;;;;;;5075280;28;20284;-39
2021/01/09 08:00:42;;;;;;;21.10;17.73;;;2.90;99.90;;;;;;5075013;28;20294;-40
2021/01/09 08:03:10;;;;;;;22.70;18.17;;;2.90;99.90;;;;;;5074785;28;20329;-39
2021/01/09 08:05:37;;;;;;;24.50;18.80;;;2.90;99.90;;;;;;5075208;28;20211;-39
2021/01/09 08:08:05;;;;;;;23.73;19.43;;;2.90;99.90;;;;;;5074825;28;20212;-40
2021/01/09 08:10:34;;;;;;;24.23;18.83;;;3.00;99.90;;;;;;5074558;28;20235;-40
2021/01/09 08:13:02;;;;;;;25.55;20.13;;;3.00;99.90;;;;;;5075020;28;20594;-39
2021/01/09 08:15:32;;;;;;;24.60;19.60;;;3.00;99.90;;;;;;5074649;28;20258;-39
2021/01/09 08:18:03;;;;;;;25.43;20.13;;;3.00;99.90;;;;;;5074356;28;20708;-40
2021/01/09 08:20:30;;;;;;;25.27;20.20;;;3.00;99.90;;;;;;5076341;28;20570;-39
2021/01/09 08:22:58;;;;;;;25.85;19.83;;;3.00;99.90;;;;;;5074522;28;20226;-39
2021/01/09 08:25:27;;;;;;;24.25;19.75;;;3.00;99.90;;;;;;5074514;28;20211;-40
2021/01/09 08:27:56;;;;;;;24.48;18.42;;;3.00;99.90;;;;;;5074571;28;20217;-40
2021/01/09 08:30:27;;;;;;;23.33;18.48;;;3.00;99.90;;;;;;5074577;28;20605;-40
2021/01/09 08:33:06;;;;;;;24.02;18.65;;;3.10;99.90;;;;;;5074748;28;20306;-40
2021/01/09 08:35:34;;;;;;;22.17;18.87;;;3.10;99.90;;;;;;5074450;28;20685;-40
2021/01/09 08:38:01;;;;;;;32.85;27.85;;;3.20;99.90;;;;;;5074343;28;20234;-40
2021/01/09 08:40:31;;;;;;;26.35;19.73;;;3.20;99.90;;;;;;5074307;28;20723;-40
2021/01/09 08:43:04;;;;;;;26.55;21.92;;;3.20;99.90;;;;;;5074434;28;20298;-40
2021/01/09 08:45:48;;;;;;;26.45;20.75;;;3.20;99.90;;;;;;5074421;28;20265;-41
2021/01/09 08:48:18;;;;;;;25.60;20.77;;;3.20;99.90;;;;;;5074403;28;20217;-40
2021/01/09 08:50:57;;;;;;;25.98;19.67;;;3.30;99.90;;;;;;5073976;28;20207;-40
2021/01/09 08:53:31;;;;;;;25.75;21.27;;;3.30;99.90;;;;;;5074428;28;20234;-41
2021/01/09 08:56:02;;;;;;;25.00;20.27;;;3.20;99.90;;;;;;5074228;28;20295;-40
2021/01/09 08:58:34;;;;;;;25.00;20.15;;;3.30;99.90;;;;;;5074289;28;20265;-40
2021/01/09 09:01:03;;;;;;;26.63;20.30;;;3.20;99.90;;;;;;5074002;28;20212;-40
2021/01/09 09:03:32;;;;;;;23.03;19.73;;;3.30;99.90;;;;;;5073847;28;20266;-40
2021/01/09 09:06:07;;;;;;;25.27;20.98;;;3.30;99.90;;;;;;5074512;28;20432;-41
2021/01/09 09:08:35;;;;;;;29.88;23.38;;;3.30;99.90;;;;;;5074119;28;20351;-40
2021/01/09 09:11:03;;;;;;;27.07;21.00;;;3.40;99.90;;;;;;5073763;28;20242;-39
2021/01/09 09:13:30;;;;;;;24.77;20.15;;;3.50;99.90;;;;;;5073902;28;20294;-40
2021/01/09 09:15:58;;;;;;;26.30;20.83;;;3.60;99.90;;;;;;5073700;28;20209;-40
2021/01/09 09:18:33;;;;;;;26.35;21.75;;;3.60;99.90;;;;;;5073479;28;20298;-39
2021/01/09 09:21:00;;;;;;;24.83;20.90;;;3.60;99.90;;;;;;5073678;28;20222;-40
2021/01/09 09:23:27;;;;;;;24.63;19.33;;;3.60;99.90;;;;;;5073393;28;20284;-40
2021/01/09 09:26:06;;;;;;;25.42;20.35;;;3.70;99.90;;;;;;5073416;28;20211;-40
2021/01/09 09:28:43;;;;;;;25.17;19.70;;;3.60;99.90;;;;;;5073251;28;20230;-42
2021/01/09 09:31:24;;;;;;;25.85;19.42;;;3.50;99.90;;;;;;5073533;28;20241;-40
2021/01/09 09:34:07;;;;;;;23.65;18.80;;;3.50;99.90;;;;;;5073549;28;20221;-40
2021/01/09 09:36:36;;;;;;;22.25;19.65;;;3.40;99.90;;;;;;5073383;28;20245;-40
2021/01/09 09:39:15;;;;;;;25.45;19.95;;;3.40;99.90;;;;;;5073653;28;20214;-41
2021/01/09 09:41:54;;;;;;;26.80;20.33;;;3.40;99.90;;;;;;5073529;28;20207;-41
2021/01/09 09:44:32;;;;;;;26.90;20.77;;;3.40;99.90;;;;;;5073078;28;20764;-39
2021/01/09 09:46:59;;;;;;;27.38;23.15;;;3.40;99.90;;;;;;5073120;28;20727;-39
2021/01/09 09:49:31;;;;;;;29.23;23.67;;;3.60;99.90;;;;;;5073068;28;20239;-39
2021/01/09 09:51:58;;;;;;;25.02;20.58;;;3.60;99.90;;;;;;5073277;28;20238;-39
2021/01/09 09:54:29;;;;;;;30.40;22.50;;;3.50;99.90;;;;;;5073172;28;20239;-40
2021/01/09 09:56:57;;;;;;;28.07;22.40;;;3.60;99.90;;;;;;5072864;28;20757;-39
2021/01/09 09:59:29;;;;;;;29.38;21.40;;;3.60;99.90;;;;;;5072857;28;20211;-42
2021/01/09 10:01:58;;;;;;;28.25;21.00;;;3.60;99.90;;;;;;5072240;28;20242;-41
2021/01/09 10:04:25;;;;;;;30.40;22.75;;;3.50;99.90;;;;;;5072667;28;20223;-40
2021/01/09 10:06:53;;;;;;;31.88;22.55;;;3.40;99.90;;;;;;5072800;28;20204;-40
2021/01/09 10:09:22;;;;;;;31.67;23.85;;;3.40;99.90;;;;;;5072400;28;20723;-41
2021/01/09 10:11:50;;;;;;;33.70;24.00;;;3.40;99.90;;;;;;5072477;28;20247;-41
2021/01/09 10:14:21;;;;;;;29.52;23.38;;;3.40;99.90;;;;;;5072476;28;20263;-42
2021/01/09 10:16:49;;;;;;;27.77;21.17;;;3.50;99.90;;;;;;5072443;28;20709;-42
2021/01/09 10:19:18;;;;;;;26.98;21.85;;;3.60;99.90;;;;;;5072615;28;20230;-41
2021/01/09 10:21:46;;;;;;;26.88;20.48;;;3.70;99.90;;;;;;5072547;28;20207;-42
2021/01/09 10:24:14;;;;;;;26.48;21.15;;;3.70;99.90;;;;;;5072399;28;20273;-42
2021/01/09 10:26:41;;;;;;;27.90;20.98;;;3.80;99.90;;;;;;5072459;28;20559;-40
2021/01/09 10:29:13;;;;;;;28.23;20.90;;;3.80;99.90;;;;;;5072523;28;20207;-40
2021/01/09 10:31:40;;;;;;;26.77;22.98;;;3.80;99.90;;;;;;5072238;28;20333;-40
2021/01/09 10:34:09;;;;;;;24.25;19.83;;;3.90;99.90;;;;;;5072222;28;20634;-40
2021/01/09 10:36:37;;;;;;;28.27;21.45;;;3.90;99.90;;;;;;5072425;28;20582;-39
2021/01/09 10:39:06;;;;;;;27.33;21.80;;;4.10;99.90;;;;;;5072230;28;20264;-41
2021/01/09 10:41:34;;;;;;;30.20;22.08;;;4.10;99.90;;;;;;5072261;28;20204;-39
2021/01/09 10:44:04;;;;;;;24.73;19.52;;;4.30;99.90;;;;;;5072426;28;20318;-40
2021/01/09 10:46:32;;;;;;;25.15;20.10;;;4.50;99.90;;;;;;5072233;28;20277;-40
2021/01/09 10:49:00;;;;;;;26.00;21.58;;;4.70;99.90;;;;;;5072128;28;20214;-40
2021/01/09 10:51:29;;;;;;;23.33;18.10;;;4.90;99.90;;;;;;5072245;28;20207;-40
2021/01/09 10:53:56;;;;;;;25.37;20.27;;;5.10;99.90;;;;;;5072049;28;20253;-40
2021/01/09 10:56:23;;;;;;;28.13;22.60;;;5.30;99.90;;;;;;5071963;28;20211;-40
2021/01/09 10:58:51;;;;;;;25.35;19.92;;;5.30;99.90;;;;;;5072051;28;20692;-41
2021/01/09 11:01:20;;;;;;;22.27;19.40;;;5.50;99.90;;;;;;5071253;28;20298;-41
2021/01/09 11:03:48;;;;;;;26.10;20.67;;;5.60;99.90;;;;;;5071757;28;20258;-42
2021/01/09 11:06:21;;;;;;;31.08;25.08;;;5.80;99.90;;;;;;5071733;28;20211;-41
2021/01/09 11:08:48;;;;;;;24.40;21.17;;;5.90;99.90;;;;;;5071885;28;20229;-41
2021/01/09 11:11:16;;;;;;;22.40;17.83;;;5.90;99.90;;;;;;5071759;28;20243;-42
2021/01/09 11:13:43;;;;;;;20.92;16.77;;;5.90;99.90;;;;;;5073505;28;20213;-40
2021/01/09 11:16:11;;;;;;;23.42;17.35;;;5.90;99.90;;;;;;5075954;28;20310;-41
2021/01/09 11:18:41;;;;;;;21.83;18.70;;;5.90;99.90;;;;;;5075997;28;20207;-41
2021/01/09 11:21:08;;;;;;;22.20;18.63;;;5.80;99.90;;;;;;5075792;28;20306;-42
2021/01/09 11:23:35;;;;;;;21.45;18.10;;;5.60;99.90;;;;;;5075745;28;20767;-42
2021/01/09 11:26:02;;;;;;;20.80;17.33;;;5.50;99.90;;;;;;5075789;28;20225;-42
2021/01/09 11:28:29;;;;;;;22.10;19.03;;;5.30;99.90;;;;;;5075588;28;20276;-43
2021/01/09 11:30:58;;;;;;;23.65;20.00;;;5.10;99.90;;;;;;5075781;28;20207;-41
2021/01/09 11:33:28;;;;;;;21.77;17.27;;;4.90;99.90;;;;;;5075521;28;20207;-41
2021/01/09 11:35:55;;;;;;;22.08;18.13;;;4.70;99.90;;;;;;5075723;28;20235;-41
2021/01/09 11:38:22;;;;;;;23.15;18.95;;;4.60;99.90;;;;;;5075738;28;20207;-40
2021/01/09 11:40:50;;;;;;;23.65;18.20;;;4.50;99.90;;;;;;5075503;28;20214;-42
2021/01/09 11:43:17;;;;;;;21.33;16.00;;;4.60;99.90;;;;;;5075562;28;20249;-41
2021/01/09 11:45:44;;;;;;;20.58;16.80;;;4.90;99.90;;;;;;5075264;28;20302;-41
2021/01/09 11:48:11;;;;;;;16.60;14.48;;;5.20;99.90;;;;;;5075181;28;20681;-41
2021/01/09 11:50:43;;;;;;;16.77;14.90;;;5.40;99.60;;;;;;5075236;28;20217;-41
2021/01/09 11:53:18;;;;;;;18.27;14.73;;;5.50;99.30;;;;;;5075382;28;20207;-40
2021/01/09 11:55:46;;;;;;;14.75;12.82;;;5.60;99.10;;;;;;5075072;28;20260;-41
2021/01/09 11:58:13;;;;;;;14.93;13.02;;;5.70;98.80;;;;;;5075174;28;20239;-40
2021/01/09 12:00:40;;;;;;;17.50;15.13;;;5.90;98.50;;;;;;5082144;28;20221;-41
2021/01/09 12:03:07;;;;;;;16.85;15.05;;;5.90;98.50;;;;;;5095275;28;20203;-41
2021/01/09 12:05:34;;;;;;;18.67;14.75;;;6.00;98.00;;;;;;5095264;28;20230;-41
2021/01/09 12:08:03;;;;;;;17.23;14.77;;;6.20;97.70;;;;;;5095192;28;20207;-41
2021/01/09 12:10:30;;;;;;;16.50;14.40;;;6.40;97.40;;;;;;5094870;28;20242;-40
2021/01/09 12:13:03;;;;;;;19.35;15.07;;;6.50;97.10;;;;;;5094710;28;20206;-41
2021/01/09 12:15:30;;;;;;;19.42;17.27;;;6.70;96.80;;;;;;5094622;28;20203;-41
2021/01/09 12:17:57;;;;;;;23.05;18.00;;;6.70;96.60;;;;;;5094984;28;20215;-41
2021/01/09 12:20:25;;;;;;;39.63;29.80;;;6.50;97.30;;;;;;5094783;28;20641;-41
2021/01/09 12:22:52;;;;;;;20.73;17.80;;;6.20;97.30;;;;;;5094942;28;20412;-41
2021/01/09 12:25:21;;;;;;;24.17;19.73;;;5.80;97.80;;;;;;5094016;28;20226;-41
2021/01/09 12:27:47;;;;;;;20.27;16.88;;;5.50;98.10;;;;;;5094582;28;20298;-41
2021/01/09 12:30:16;;;;;;;24.40;18.15;;;5.20;98.70;;;;;;5094993;28;20286;-41
2021/01/09 12:32:43;;;;;;;22.10;18.10;;;5.00;98.90;;;;;;5094807;28;20210;-41
2021/01/09 12:35:11;;;;;;;25.10;20.88;;;4.90;99.10;;;;;;5094719;28;20285;-40
2021/01/09 12:37:38;;;;;;;22.42;17.38;;;4.80;99.10;;;;;;5094891;28;20370;-40
2021/01/09 12:40:07;;;;;;;20.83;16.73;;;4.70;99.50;;;;;;5094535;28;20233;-40
2021/01/09 12:42:35;;;;;;;23.38;18.05;;;4.70;99.40;;;;;;5094409;28;20362;-41
2021/01/09 12:45:02;;;;;;;20.47;16.47;;;4.60;99.30;;;;;;5094393;28;20226;-41